Data for 09/09/2010

Time Sea-Level Adjusted Pressure Absolute Pressure Temperature Relative Humidity Dew Point   
(mb) (inHg) (mb) (inHg) (C) (F) (%) (C) (F)
00:05 1010 29.83 839 24.78 10.7 51.2 84 8 46.5
00:10 1010 29.83 839 24.78 10.8 51.4 84 8.2 46.8
00:15 1010 29.83 839 24.78 10.5 50.9 86 8.3 46.9
00:20 1010 29.83 839 24.78 10.3 50.6 86 8.1 46.6
00:25 1010 29.83 839 24.78 10.3 50.5 86 8 46.4
00:30 1010 29.83 839 24.78 10.1 50.1 88 8.1 46.7
00:35 1010 29.83 839 24.78 9.9 49.7 88 8 46.4
00:40 1010 29.83 839 24.78 9.6 49.3 89 8 46.3
00:45 1010 29.83 839 24.78 9.3 48.8 91 7.9 46.1
00:50 1010 29.83 839 24.78 9.3 48.8 90 7.8 46.1
00:55 1010 29.83 839 24.78 9.3 48.7 91 7.9 46.1
01:00 1010 29.83 839 24.78 9.2 48.6 91 7.8 46.1
01:05 1010 29.83 839 24.78 9.3 48.7 90 7.8 46
01:10 1010 29.83 839 24.78 9.4 48.8 90 7.8 46.1
01:15 1010 29.83 839 24.78 9.3 48.7 91 7.8 46
01:20 1010 29.83 839 24.78 9.2 48.6 91 7.8 46
01:25 1010 29.83 839 24.78 9.3 48.8 90 7.8 46.1
01:30 1010 29.83 839 24.78 9.4 48.8 90 7.9 46.1
01:35 1010 29.83 839 24.78 9.3 48.7 91 7.8 46.1
01:40 1010 29.83 839 24.78 9.3 48.8 90 7.8 46.1
01:45 1010 29.83 839 24.78 9.5 49.1 89 7.9 46.1
01:50 1010 29.83 839 24.78 9.4 49 90 7.9 46.2
01:55 1010 29.83 839 24.78 9.4 48.9 89 7.8 46
02:00 1009 29.8 839 24.78 9.3 48.8 90 7.8 46
02:05 1009 29.8 839 24.78 9.2 48.6 91 7.8 46
02:10 1009 29.8 839 24.78 9 48.3 91 7.7 45.9
02:15 1009 29.8 838 24.75 9 48.3 91 7.7 45.9
02:20 1009 29.8 839 24.78 9.2 48.5 90 7.6 45.8
02:25 1009 29.8 839 24.78 9.5 49 89 7.7 45.9
02:30 1010 29.83 839 24.78 9.5 49 90 8 46.4
02:35 1009 29.8 839 24.78 9.2 48.6 92 8 46.4
02:40 1009 29.8 839 24.78 9 48.1 94 8 46.4
02:45 1009 29.8 839 24.78 8.7 47.7 94 7.9 46.1
02:50 1009 29.8 838 24.75 8.7 47.6 93 7.7 45.8
02:55 1009 29.8 839 24.78 8.8 47.9 93 7.7 45.9
03:00 1009 29.8 838 24.75 9.3 48.7 92 8 46.5
03:05 1009 29.8 838 24.75 9.2 48.6 92 8 46.4
03:10 1009 29.8 838 24.75 9.3 48.7 93 8.2 46.7
03:15 1009 29.8 838 24.75 9.3 48.7 92 8 46.5
03:20 1009 29.8 838 24.75 9.4 48.8 90 7.8 46.1
03:25 1009 29.8 838 24.75 9.2 48.6 90 7.6 45.8
03:30 1009 29.8 838 24.75 9.2 48.6 88 7.4 45.4
03:35 1009 29.8 838 24.75 9.5 49.1 87 7.5 45.4
03:40 1009 29.8 838 24.75 9.9 49.8 85 7.4 45.4
03:45 1008 29.77 838 24.75 10.1 50.3 85 7.8 46
03:50 1008 29.77 838 24.75 9.9 49.9 85 7.6 45.7
03:55 1008 29.77 838 24.75 9.9 49.9 86 7.7 45.8
04:00 1008 29.77 838 24.75 10 49.9 86 7.7 45.8
04:05 1008 29.77 837 24.72 10 49.9 85 7.6 45.7
04:10 1008 29.77 837 24.72 10 50.1 84 7.5 45.5
04:15 1008 29.77 837 24.72 10.2 50.3 84 7.6 45.6
04:20 1008 29.77 837 24.72 10.3 50.5 83 7.5 45.5
04:25 1008 29.77 837 24.72 10.3 50.6 82 7.5 45.4
04:30 1008 29.77 837 24.72 10.4 50.7 82 7.4 45.3
04:35 1008 29.77 837 24.72 10.4 50.8 82 7.6 45.7
04:40 1008 29.77 837 24.72 10.3 50.5 83 7.5 45.5
04:45 1008 29.77 837 24.72 10.4 50.8 82 7.5 45.5
04:50 1008 29.77 837 24.72 10.4 50.7 83 7.6 45.6
04:55 1008 29.77 837 24.72 10.3 50.5 83 7.6 45.7
05:00 1008 29.77 837 24.72 10.2 50.4 83 7.5 45.6
05:05 1008 29.77 837 24.72 10.1 50.2 84 7.5 45.5
05:10 1008 29.77 837 24.72 10.1 50.1 84 7.6 45.6
05:15 1008 29.77 837 24.72 10 50 85 7.6 45.6
05:20 1008 29.77 837 24.72 10 49.9 85 7.5 45.6
05:25 1008 29.77 837 24.72 10 49.9 84 7.5 45.4
05:30 1008 29.77 837 24.72 10 49.9 84 7.4 45.3
05:35 1008 29.77 837 24.72 10 50.1 84 7.4 45.3
05:40 1008 29.77 837 24.72 10.1 50.1 83 7.3 45.2
05:45 1008 29.77 837 24.72 10.1 50.2 83 7.4 45.3
05:50 1007 29.74 837 24.72 10.2 50.3 82 7.2 45
05:55 1007 29.74 837 24.72 10.3 50.6 81 7.2 45
06:00 1008 29.77 837 24.72 10.3 50.6 81 7.2 45
06:05 1008 29.77 837 24.72 10.3 50.5 82 7.3 45.2
06:10 1008 29.77 837 24.72 10.3 50.5 81 7.2 44.9
06:15 1007 29.74 837 24.72 10.4 50.6 81 7.2 45
06:20 1007 29.74 837 24.72 10.4 50.6 80 7.1 44.8
06:25 1007 29.74 836 24.69 10.5 50.8 80 7.1 44.8
06:30 1007 29.74 836 24.69 10.5 50.8 79 7.1 44.7
06:35 1007 29.74 837 24.72 10.5 50.8 80 7.2 45
06:40 1007 29.74 837 24.72 10.3 50.6 80 7.1 44.9
06:45 1007 29.74 837 24.72 10.2 50.4 82 7.3 45.1
06:50 1007 29.74 837 24.72 10.2 50.3 81 7.1 44.7
06:55 1007 29.74 837 24.72 10.2 50.4 81 7.1 44.8
07:00 1007 29.74 836 24.69 10.2 50.4 82 7.2 45
07:05 1007 29.74 836 24.69 10 50.1 82 7.1 44.9
07:10 1007 29.74 836 24.69 10.1 50.1 82 7.2 45
07:15 1007 29.74 836 24.69 10.1 50.1 83 7.2 45
07:20 1007 29.74 836 24.69 10 50 82 7.1 44.8
07:25 1007 29.74 836 24.69 10.3 50.5 81 7.1 44.8
07:30 1007 29.74 836 24.69 10.4 50.7 80 7.1 44.7
07:35 1007 29.74 836 24.69 10.6 51 79 7.1 44.8
07:40 1007 29.74 836 24.69 10.7 51.3 78 7.1 44.8
07:45 1007 29.74 836 24.69 10.9 51.6 78 7.2 44.9
07:50 1007 29.74 836 24.69 10.9 51.5 78 7.2 45
07:55 1007 29.74 836 24.69 11.1 52.1 77 7.3 45.2
08:00 1007 29.74 836 24.69 11.7 53 77 7.8 46.1
08:05 1007 29.74 836 24.69 11.8 53.3 80 8.6 47.4
08:10 1007 29.74 836 24.69 11.3 52.3 85 8.9 48
08:15 1007 29.74 836 24.69 11.1 52 83 8.3 47
08:20 1007 29.74 836 24.69 11.4 52.4 83 8.6 47.5
08:25 1007 29.74 836 24.69 11.1 52 85 8.8 47.8
08:30 1007 29.74 836 24.69 10.7 51.3 90 9.1 48.4
08:35 1007 29.74 836 24.69 9.8 49.6 94 8.8 47.9
08:40 1007 29.74 836 24.69 9.7 49.4 94 8.7 47.6
08:45 1007 29.74 837 24.72 9.8 49.6 93 8.7 47.7
08:50 1007 29.74 837 24.72 9.7 49.4 94 8.7 47.7
08:55 1007 29.74 836 24.69 9.7 49.4 94 8.8 47.8
09:00 1007 29.74 836 24.69 9.6 49.3 94 8.7 47.7
09:05 1007 29.74 837 24.72 9.8 49.6 95 9 48.3
09:10 1007 29.74 836 24.69 9.9 49.9 94 9 48.1
09:15 1007 29.74 836 24.69 9.8 49.6 94 8.8 47.9
09:20 1007 29.74 836 24.69 9.7 49.5 94 8.7 47.7
09:25 1007 29.74 836 24.69 9.9 49.8 93 8.9 47.9
09:30 1007 29.74 836 24.69 9.9 49.9 94 9 48.3
09:35 1007 29.74 836 24.69 10 50 93 8.9 48
09:40 1007 29.74 836 24.69 10 50.1 92 8.8 47.9
09:45 1007 29.74 836 24.69 10.1 50.2 91 8.8 47.8
09:50 1007 29.74 836 24.69 10.2 50.3 91 8.8 47.9
09:55 1007 29.74 836 24.69 10.5 50.9 90 8.9 48
10:00 1007 29.74 836 24.69 10.6 51 89 8.9 48
10:05 1007 29.74 836 24.69 10.8 51.4 88 8.9 47.9
10:10 1007 29.74 836 24.69 11.3 52.3 85 8.9 48
10:15 1007 29.74 836 24.69 12 53.7 81 8.9 48
10:20 1007 29.74 836 24.69 12.4 54.3 79 9 48.1
10:25 1007 29.74 836 24.69 12.7 54.9 80 9.3 48.8
10:30 1007 29.74 836 24.69 12.6 54.6 81 9.3 48.8
10:35 1007 29.74 836 24.69 12.6 54.6 80 9.2 48.5
10:40 1007 29.74 836 24.69 12.1 53.8 83 9.3 48.8
10:45 1007 29.74 836 24.69 12.5 54.4 81 9.3 48.7
10:50 1007 29.74 836 24.69 12.4 54.4 81 9.2 48.6
10:55 1007 29.74 836 24.69 12.6 54.7 80 9.3 48.8
11:00 1007 29.74 836 24.69 12.6 54.8 81 9.4 48.9
11:05 1007 29.74 836 24.69 12.3 54.1 82 9.4 48.9
11:10 1007 29.74 836 24.69 12 53.6 82 9.1 48.4
11:15 1007 29.74 836 24.69 12.1 53.7 82 9.1 48.4
11:20 1007 29.74 836 24.69 11.7 53.1 86 9.4 48.9
11:25 1007 29.74 837 24.72 11.5 52.8 85 9.1 48.4
11:30 1007 29.74 837 24.72 11.7 53 84 9 48.3
11:35 1007 29.74 837 24.72 11.5 52.8 85 9 48.3
11:40 1007 29.74 836 24.69 11.3 52.4 86 9.1 48.4
11:45 1007 29.74 836 24.69 11.6 52.8 84 9 48.2
11:50 1007 29.74 836 24.69 11.5 52.7 86 9.2 48.5
11:55 1007 29.74 836 24.69 11.1 52 87 9 48.2
12:00 1007 29.74 836 24.69 11.1 52 86 8.9 48
12:05 1007 29.74 836 24.69 11.5 52.8 84 8.9 48.1
12:10 1007 29.74 836 24.69 11.7 53 84 9.1 48.4
12:15 1007 29.74 836 24.69 11.7 53.1 84 9.1 48.4
12:20 1007 29.74 836 24.69 12 53.5 83 9.1 48.4
12:25 1007 29.74 836 24.69 12 53.6 82 9.1 48.4
12:30 1007 29.74 836 24.69 12.1 53.7 82 9 48.3
12:35 1007 29.74 836 24.69 12.3 54.1 81 9.2 48.5
12:40 1007 29.74 836 24.69 12.9 55.2 76 8.8 47.9
12:45 1007 29.74 836 24.69 13.5 56.2 74 8.9 48
12:50 1007 29.74 836 24.69 13.3 55.9 76 9.2 48.6
12:55 1007 29.74 836 24.69 12.6 54.6 79 9.1 48.3
13:00 1007 29.74 836 24.69 12.9 55.2 78 9.1 48.4
13:05 1007 29.74 836 24.69 13.1 55.5 75 8.7 47.6
13:10 1007 29.74 836 24.69 13.8 56.9 73 9.1 48.4
13:15 1007 29.74 836 24.69 13.6 56.4 75 9.3 48.7
13:20 1007 29.74 836 24.69 13.4 56.1 73 8.7 47.7
13:25 1007 29.74 836 24.69 13.7 56.6 74 9.2 48.6
13:30 1007 29.74 836 24.69 13.1 55.5 75 8.8 47.9
13:35 1007 29.74 836 24.69 13.1 55.5 76 9 48.2
13:40 1007 29.74 836 24.69 13.5 56.3 72 8.7 47.6
13:45 1007 29.74 836 24.69 13.6 56.5 70 8.4 47.1
13:50 1007 29.74 836 24.69 14.3 57.7 66 8.1 46.6
13:55 1007 29.74 836 24.69 15.7 60.2 63 8.8 47.8
14:00 1007 29.74 836 24.69 15.5 60 66 9.2 48.6
14:05 1007 29.74 836 24.69 15.4 59.8 65 9 48.2
14:10 1007 29.74 836 24.69 15.5 59.9 67 9.4 49
14:15 1007 29.74 836 24.69 15.3 59.5 67 9.3 48.8
14:20 1007 29.74 836 24.69 15.2 59.3 67 9.1 48.4
14:25 1007 29.74 836 24.69 15.1 59.2 68 9.4 48.9
14:30 1007 29.74 836 24.69 14.7 58.5 74 10.3 50.5
14:35 1007 29.74 836 24.69 14 57.1 74 9.4 49
14:40 1007 29.74 836 24.69 12.1 53.7 82 9.1 48.4
14:45 1007 29.74 836 24.69 11.1 52 82 8.3 46.9
14:50 1007 29.74 836 24.69 10.9 51.5 84 8.2 46.8
14:55 1007 29.74 836 24.69 10.5 51 85 8.2 46.7
15:00 1007 29.74 837 24.72 10.5 50.9 83 7.7 45.9
15:05 1007 29.74 836 24.69 10.5 50.9 83 7.7 45.9
15:10 1007 29.74 837 24.72 10.9 51.6 87 8.9 48
15:15 1007 29.74 836 24.69 11.4 52.5 86 9.2 48.6
15:20 1007 29.74 836 24.69 11.9 53.5 85 9.4 49
15:25 1007 29.74 836 24.69 12.4 54.2 80 8.9 48.1
15:30 1007 29.74 836 24.69 12.4 54.3 81 9.2 48.6
15:35 1007 29.74 837 24.72 12.1 53.8 82 9.2 48.5
15:40 1007 29.74 837 24.72 11.6 52.8 86 9.3 48.7
15:45 1007 29.74 837 24.72 11.7 53 85 9.3 48.7
15:50 1008 29.77 837 24.72 11.8 53.3 85 9.4 48.9
15:55 1008 29.77 837 24.72 11.9 53.4 83 9.1 48.5
16:00 1008 29.77 837 24.72 11.6 52.9 85 9.2 48.6
16:05 1008 29.77 837 24.72 11.5 52.7 84 8.8 47.9
16:10 1008 29.77 837 24.72 11.4 52.5 85 9 48.1
16:15 1008 29.77 837 24.72 11.3 52.4 83 8.6 47.4
16:20 1008 29.77 837 24.72 11.3 52.3 84 8.7 47.7
16:25 1008 29.77 837 24.72 11.2 52.2 84 8.6 47.5
16:30 1008 29.77 838 24.75 11.1 52 85 8.7 47.6
16:35 1008 29.77 838 24.75 11 51.9 79 7.5 45.6
16:40 1008 29.77 838 24.75 11 51.7 80 7.6 45.6
16:45 1009 29.8 838 24.75 10.9 51.6 81 7.8 46.1
16:50 1009 29.8 838 24.75 10.8 51.5 83 8 46.4
16:55 1009 29.8 838 24.75 10.8 51.4 83 8 46.5
17:00 1009 29.8 838 24.75 10.8 51.4 83 8 46.3
17:05 1009 29.8 838 24.75 10.6 51 83 7.7 45.9
17:10 1009 29.8 838 24.75 10.3 50.6 83 7.7 45.8
17:15 1009 29.8 838 24.75 10.1 50.2 85 7.7 45.8
17:20 1009 29.8 838 24.75 9.9 49.9 85 7.6 45.7
17:25 1009 29.8 839 24.78 9.7 49.4 87 7.7 45.8
17:30 1009 29.8 839 24.78 9.5 49 88 7.6 45.8
17:35 1010 29.83 839 24.78 9.3 48.8 89 7.7 45.8
17:40 1009 29.8 839 24.78 9.2 48.6 90 7.7 45.8
17:45 1009 29.8 839 24.78 9.2 48.5 91 7.8 46
17:50 1009 29.8 839 24.78 9.2 48.6 91 7.8 46.1
17:55 1010 29.83 839 24.78 9.3 48.7 90 7.7 45.8
18:00 1010 29.83 839 24.78 9.2 48.5 89 7.4 45.3
18:05 1010 29.83 839 24.78 9.1 48.5 89 7.4 45.3
18:10 1010 29.83 839 24.78 9.3 48.7 88 7.3 45.1
18:15 1010 29.83 839 24.78 9.3 48.7 89 7.5 45.5
18:20 1010 29.83 839 24.78 9.3 48.7 88 7.4 45.4
18:25 1010 29.83 839 24.78 9.3 48.7 86 7 44.7
18:30 1010 29.83 839 24.78 9.2 48.6 86 7.1 44.7
18:35 1010 29.83 839 24.78 9.2 48.6 86 7 44.7
18:40 1010 29.83 840 24.81 9.2 48.5 87 7.1 44.7
18:45 1010 29.83 840 24.81 9 48.2 87 6.9 44.5
18:50 1011 29.85 840 24.81 8.9 48.1 87 6.9 44.5
18:55 1011 29.85 840 24.81 8.8 47.8 87 6.8 44.3
19:00 1011 29.85 840 24.81 8.6 47.5 88 6.8 44.2
19:05 1011 29.85 840 24.81 8.5 47.2 90 6.9 44.4
19:10 1011 29.85 840 24.81 8.3 47 90 6.9 44.3
19:15 1011 29.85 840 24.81 8.3 46.9 91 6.8 44.3
19:20 1011 29.85 840 24.81 8.2 46.7 91 6.8 44.3
19:25 1011 29.85 840 24.81 8.1 46.6 92 6.9 44.4
19:30 1011 29.85 840 24.81 8.1 46.6 92 6.9 44.4
19:35 1011 29.85 840 24.81 8.1 46.6 92 6.9 44.4
19:40 1011 29.85 840 24.81 8.1 46.6 92 6.9 44.5
19:45 1011 29.85 840 24.81 8.1 46.5 93 7 44.5
19:50 1011 29.85 840 24.81 8 46.5 93 7 44.6
19:55 1011 29.85 841 24.83 8 46.4 93 7 44.6
20:00 1011 29.85 841 24.83 8 46.4 93 7 44.6
20:05 1011 29.85 841 24.83 8 46.4 93 7 44.6
20:10 1012 29.88 841 24.83 7.9 46.3 93 6.9 44.5
20:15 1012 29.88 841 24.83 7.9 46.2 93 6.8 44.3
20:20 1012 29.88 841 24.83 7.7 45.9 94 6.8 44.2
20:25 1012 29.88 841 24.83 7.7 45.8 94 6.7 44.1
20:30 1012 29.88 841 24.83 7.6 45.7 94 6.7 44
20:35 1012 29.88 841 24.83 7.6 45.6 94 6.7 44
20:40 1012 29.88 841 24.83 7.6 45.6 94 6.7 44.1
20:45 1012 29.88 841 24.83 7.7 45.8 94 6.8 44.2
20:50 1012 29.88 841 24.83 7.7 45.8 93 6.7 44
20:55 1012 29.88 841 24.83 7.5 45.4 93 6.3 43.4
21:00 1012 29.88 841 24.83 7.4 45.2 93 6.3 43.4
21:05 1012 29.88 841 24.83 7.3 45.2 93 6.3 43.4
21:10 1012 29.88 841 24.83 7.3 45.1 94 6.4 43.4
21:15 1012 29.88 841 24.83 7.3 45.2 94 6.4 43.5
21:20 1012 29.88 842 24.86 7.4 45.4 93 6.4 43.6
21:25 1012 29.88 842 24.86 7.5 45.5 94 6.5 43.7
21:30 1012 29.88 842 24.86 7.5 45.5 94 6.5 43.8
21:35 1012 29.88 842 24.86 7.5 45.4 94 6.6 43.8
21:40 1012 29.88 842 24.86 7.5 45.6 94 6.6 43.9
21:45 1012 29.88 842 24.86 7.5 45.6 94 6.6 43.8
21:50 1013 29.91 842 24.86 7.5 45.4 94 6.5 43.7
21:55 1013 29.91 842 24.86 7.4 45.3 93 6.4 43.5
22:00 1013 29.91 842 24.86 7.4 45.3 93 6.3 43.3
22:05 1013 29.91 842 24.86 7.3 45.2 92 6.1 43
22:10 1013 29.91 842 24.86 7.3 45.2 91 6 42.8
22:15 1013 29.91 842 24.86 7.3 45.2 91 5.9 42.6
22:20 1013 29.91 842 24.86 7.3 45.2 90 5.8 42.4
22:25 1013 29.91 842 24.86 7.3 45.1 90 5.8 42.5
22:30 1013 29.91 842 24.86 7.2 45 89 5.5 41.9
22:35 1013 29.91 842 24.86 7 44.7 89 5.3 41.6
22:40 1013 29.91 842 24.86 6.9 44.3 89 5.2 41.3
22:45 1013 29.91 842 24.86 6.7 44 89 5 41
22:50 1013 29.91 842 24.86 6.6 43.8 88 4.7 40.5
22:55 1013 29.91 842 24.86 6.5 43.7 88 4.7 40.5
23:00 1013 29.91 842 24.86 6.4 43.5 88 4.6 40.3
23:05 1013 29.91 842 24.86 6.3 43.4 88 4.4 40
23:10 1013 29.91 842 24.86 6.3 43.4 88 4.5 40
23:15 1013 29.91 842 24.86 6.3 43.3 88 4.4 40
23:20 1013 29.91 842 24.86 6.3 43.3 89 4.5 40.1
23:25 1013 29.91 842 24.86 6.3 43.3 89 4.6 40.3
23:30 1013 29.91 842 24.86 6.3 43.4 89 4.7 40.4
23:35 1013 29.91 842 24.86 6.4 43.5 89 4.8 40.6
23:40 1013 29.91 843 24.89 6.5 43.7 90 4.9 40.9
23:45 1013 29.91 843 24.89 6.5 43.7 90 5 41
23:50 1014 29.94 843 24.89 6.6 43.9 90 5.1 41.2
23:55 1014 29.94 843 24.89 6.6 44 90 5.1 41.2
24:00 1014 29.94 843 24.89 6.7 44 90 5.2 41.3